MSC Elbe — CQIC6 — position and weather

sailwx.info

Track history (hours):
 
Tides and Currents Weather Stations Pressure Air Temp Water Temp Dewpoint Dewpoint Depression Visibility Wind Speed Wind Dir Waves Ship Positions

MSC Elbe

Last reported at 2018-Jul-15 13:06 UTC. Time now 2018-Jul-17 01:48 UTC.
Position N 33°40' E 025°37'.

Length 208 m; draft 9.2 m.

Type: Ship (hazmat cat D). MMSI: 255805922.

Date/timePositionNaut miles runAvg speedWind from/ knotsBaromVisibWave heightAir tempDewpointWater temp
2018-Jul-15 13:06N 33°40' E 025°37'  
2018-Jul-12 13:56N 34°38' E 033°05'3 7.9
2018-Jul-12 13:30N 34°39' E 033°01'0 0.2
2018-Jul-12 13:00N 34°39' E 033°01'0 0.0
2018-Jul-12 12:30N 34°39' E 033°01'0 0.0
2018-Jul-12 12:00N 34°39' E 033°01'0 0.0
2018-Jul-12 11:27N 34°39' E 033°01'0 0.0
2018-Jul-12 10:51N 34°39' E 033°01'0 0.0
2018-Jul-12 10:30N 34°39' E 033°01'0 0.0
2018-Jul-12 10:00N 34°39' E 033°01'0 0.0
2018-Jul-12 09:30N 34°39' E 033°01'0 0.0
2018-Jul-12 09:00N 34°39' E 033°01'0 0.0
2018-Jul-12 08:30N 34°39' E 033°01'0 0.0
2018-Jul-12 08:00N 34°39' E 033°01'0 0.0
2018-Jul-12 07:30N 34°39' E 033°01'0 0.0
2018-Jul-12 07:00N 34°39' E 033°01'0 0.0
2018-Jul-12 06:30N 34°39' E 033°01'0 0.0
2018-Jul-12 06:00N 34°39' E 033°01'0 0.0
2018-Jul-12 05:30N 34°39' E 033°01'0 0.0
2018-Jul-12 05:00N 34°39' E 033°01'0 0.0
2018-Jul-12 04:30N 34°39' E 033°01'0 0.0
2018-Jul-12 04:00N 34°39' E 033°01'0 0.0
2018-Jul-12 03:30N 34°39' E 033°01'0 0.0
2018-Jul-12 03:00N 34°39' E 033°01'0 0.0
2018-Jul-12 02:30N 34°39' E 033°01'0 0.0
2018-Jul-12 02:00N 34°39' E 033°01'0 0.0
2018-Jul-12 01:30N 34°39' E 033°01'0 0.0
2018-Jul-12 00:57N 34°39' E 033°01'0 0.0
2018-Jul-12 00:30N 34°39' E 033°01'0 0.0
2018-Jul-12 00:00N 34°39' E 033°01'0 0.0
2018-Jul-11 23:30N 34°39' E 033°01'0 0.0
2018-Jul-11 23:00N 34°39' E 033°01'0 0.0
2018-Jul-11 22:30N 34°39' E 033°01'0 0.0
2018-Jul-11 22:00N 34°39' E 033°01'0 0.0
2018-Jul-11 21:30N 34°39' E 033°01'0 0.0
2018-Jul-11 21:00N 34°39' E 033°01'0 0.0
2018-Jul-11 20:30N 34°39' E 033°01'0 0.0
2018-Jul-11 20:00N 34°39' E 033°01'0 0.0
2018-Jul-11 19:30N 34°39' E 033°01'0 0.0
2018-Jul-11 19:00N 34°39' E 033°01'0 0.0
2018-Jul-11 18:30N 34°39' E 033°01'0 0.0
2018-Jul-11 18:00N 34°39' E 033°01'0 0.0
2018-Jul-11 17:24N 34°39' E 033°01'0 0.0
2018-Jul-11 17:00N 34°39' E 033°01'0 0.0
2018-Jul-11 16:30N 34°39' E 033°01'0 0.0
2018-Jul-11 16:00N 34°39' E 033°01'0 0.0
2018-Jul-11 15:30N 34°39' E 033°01'0 0.2
2018-Jul-11 15:01N 34°39' E 033°01'2 3.8
2018-Jul-11 14:30N 34°39' E 033°03'9 6.8
2018-Jul-11 13:13N 34°37' E 033°14'910.0
2018-Jul-11 12:17N 34°28' E 033°11'517.2
2018-Jul-11 12:00N 34°26' E 033°05'1417.2
2018-Jul-11 11:12N 34°25' E 032°48'37816.4
2018-Jul-10 12:08N 37°12' E 025°50'216.2
2018-Jul-10 12:00N 37°13' E 025°48'1016.3
2018-Jul-10 11:22N 37°18' E 025°36'615.8
2018-Jul-10 11:00N 37°18' E 025°29'815.6
2018-Jul-10 10:30N 37°18' E 025°19'815.6
2018-Jul-10 10:01N 37°17' E 025°09'815.7
2018-Jul-10 09:30N 37°16' E 024°59'815.7
2018-Jul-10 09:00N 37°16' E 024°50'4614.6
2018-Jul-10 05:51N 37°33' E 023°56'616.3
2018-Jul-10 05:29N 37°36' E 023°49'715.4
2018-Jul-10 05:00N 37°40' E 023°42'816.4
2018-Jul-10 04:30N 37°48' E 023°37'815.8
2018-Jul-10 04:00N 37°56' E 023°37'2 3.6
2018-Jul-10 03:28N 37°57' E 023°36'0 0.0
2018-Jul-10 02:58N 37°57' E 023°36'0 0.0
2018-Jul-10 02:28N 37°57' E 023°36'0 0.0
2018-Jul-10 01:58N 37°57' E 023°36'0 0.0
2018-Jul-10 01:28N 37°57' E 023°36'0 0.0
2018-Jul-10 00:58N 37°57' E 023°36'0 0.0
2018-Jul-10 00:28N 37°57' E 023°36'0 0.0
2018-Jul-09 23:58N 37°57' E 023°36'0 0.0
2018-Jul-09 23:28N 37°57' E 023°36'0 0.0
2018-Jul-09 22:58N 37°57' E 023°36'0 0.0
2018-Jul-09 22:28N 37°57' E 023°36'0 0.0
2018-Jul-09 21:58N 37°57' E 023°36'0 0.0
2018-Jul-09 21:28N 37°57' E 023°36'0 0.0
2018-Jul-09 20:58N 37°57' E 023°36'0 0.0
2018-Jul-09 20:28N 37°57' E 023°36'0 0.0
2018-Jul-09 19:58N 37°57' E 023°36'0 0.0
2018-Jul-09 19:28N 37°57' E 023°36'0 0.0
2018-Jul-09 18:58N 37°57' E 023°36'0 0.0
2018-Jul-09 18:28N 37°57' E 023°36'0 0.0
2018-Jul-09 17:58N 37°57' E 023°36'0 0.0
2018-Jul-09 17:28N 37°57' E 023°36'0 0.0
2018-Jul-09 16:58N 37°57' E 023°36'0 0.0
2018-Jul-09 16:28N 37°57' E 023°36'0 0.0
2018-Jul-09 15:58N 37°57' E 023°36'0 0.0
2018-Jul-09 15:28N 37°57' E 023°36'0 0.0
2018-Jul-09 14:58N 37°57' E 023°36'0 0.0
2018-Jul-09 14:28N 37°57' E 023°36'0 0.0
2018-Jul-09 13:58N 37°57' E 023°36'0 0.0
2018-Jul-09 13:28N 37°57' E 023°36'0 0.0
2018-Jul-09 12:58N 37°57' E 023°36'0 0.0
2018-Jul-09 12:28N 37°57' E 023°36'0 0.0
2018-Jul-09 11:58N 37°57' E 023°36'0 0.0
2018-Jul-09 11:28N 37°57' E 023°36'0 0.0
2018-Jul-09 10:58N 37°57' E 023°36'0 0.0
2018-Jul-09 10:28N 37°57' E 023°36'0 0.0
2018-Jul-09 09:58N 37°57' E 023°36'0 0.0
2018-Jul-09 09:28N 37°57' E 023°36'0 0.0
2018-Jul-09 08:58N 37°57' E 023°36'0 0.0
2018-Jul-09 08:28N 37°57' E 023°36'0 0.0
2018-Jul-09 07:58N 37°57' E 023°36'0 0.0
2018-Jul-09 07:28N 37°57' E 023°36'0 0.0
2018-Jul-09 06:58N 37°57' E 023°36'0 0.0
2018-Jul-09 06:28N 37°57' E 023°36'0 0.0
2018-Jul-09 05:58N 37°57' E 023°36'0 0.0
2018-Jul-09 05:28N 37°57' E 023°36'0 0.0
2018-Jul-09 04:58N 37°57' E 023°36'0 0.0
2018-Jul-09 04:28N 37°57' E 023°36'0 0.0
2018-Jul-09 03:58N 37°57' E 023°36'0 0.0
2018-Jul-09 03:28N 37°57' E 023°36'0 0.0
2018-Jul-09 02:58N 37°57' E 023°36'0 0.0
2018-Jul-09 02:28N 37°57' E 023°36'0 0.0
2018-Jul-09 01:58N 37°57' E 023°36'0 0.0
2018-Jul-09 01:28N 37°57' E 023°36'0 0.0
2018-Jul-09 00:58N 37°57' E 023°36'0 0.0
2018-Jul-09 00:28N 37°57' E 023°36'0 0.0
2018-Jul-08 23:58N 37°57' E 023°36'0 0.0
2018-Jul-08 23:28N 37°57' E 023°36'0 0.0
2018-Jul-08 22:58N 37°57' E 023°36'0 0.0
2018-Jul-08 22:28N 37°57' E 023°36'0 0.0
2018-Jul-08 21:52N 37°57' E 023°36'0 0.0
2018-Jul-08 21:28N 37°57' E 023°36'0 0.0
2018-Jul-08 20:58N 37°57' E 023°36'0 0.0
2018-Jul-08 20:28N 37°57' E 023°36'0 0.0
2018-Jul-08 19:55N 37°57' E 023°36'0 0.0
2018-Jul-08 19:28N 37°57' E 023°36'0 0.0
2018-Jul-08 18:58N 37°57' E 023°36'0 0.0
2018-Jul-08 18:28N 37°57' E 023°36'0 0.0
2018-Jul-08 17:58N 37°57' E 023°36'0 0.0
2018-Jul-08 17:25N 37°57' E 023°36'0 0.0
2018-Jul-08 16:58N 37°57' E 023°36'0 0.0
2018-Jul-08 16:28N 37°57' E 023°36'0 0.0
2018-Jul-08 15:58N 37°57' E 023°36'0 0.0
2018-Jul-08 15:28N 37°57' E 023°36'0 0.0
2018-Jul-08 14:58N 37°57' E 023°36'0 0.0
2018-Jul-08 14:28N 37°57' E 023°36'0 0.0
2018-Jul-08 13:58N 37°57' E 023°36'0 0.0
2018-Jul-08 13:28N 37°57' E 023°36'0 0.0
2018-Jul-08 12:58N 37°57' E 023°36'0 0.0
2018-Jul-08 12:28N 37°57' E 023°36'0 0.0
2018-Jul-08 11:58N 37°57' E 023°36'0 0.2
2018-Jul-08 11:30N 37°57' E 023°36'2 4.5
2018-Jul-08 11:00N 37°55' E 023°36'3 5.8
2018-Jul-08 10:30N 37°53' E 023°38'3 6.4
2018-Jul-08 10:00N 37°50' E 023°40'4 7.1
2018-Jul-08 09:30N 37°47' E 023°42'4 8.5
2018-Jul-08 09:00N 37°43' E 023°44'5 9.6
2018-Jul-08 08:30N 37°38' E 023°47'510.2
2018-Jul-08 08:00N 37°33' E 023°48'2111.4
2018-Jul-08 06:07N 37°12' E 023°46'5112.6
2018-Jul-08 02:07N 36°23' E 023°30'213.5
2018-Jul-08 02:00N 36°22' E 023°29'1013.3
2018-Jul-08 01:17N 36°13' E 023°25'63712.9
2018-Jul-05 23:53N 43°37' E 013°30'0 0.0
2018-Jul-05 23:14N 43°37' E 013°30'0 0.0
2018-Jul-05 22:56N 43°37' E 013°30'0 0.0
2018-Jul-05 22:29N 43°37' E 013°30'0 0.0
2018-Jul-05 21:32N 43°37' E 013°30'0 0.0
2018-Jul-05 21:26N 43°37' E 013°30'0 0.0
2018-Jul-05 19:41N 43°37' E 013°30'0 0.0
2018-Jul-05 19:29N 43°37' E 013°30'0 0.0
2018-Jul-05 17:53N 43°37' E 013°30'0 0.0
2018-Jul-05 17:23N 43°37' E 013°30'0 0.0
2018-Jul-05 16:56N 43°37' E 013°30'0 0.0
2018-Jul-05 16:26N 43°37' E 013°30'0 0.0
2018-Jul-05 15:56N 43°37' E 013°30'0 0.0
2018-Jul-05 15:30N 43°37' E 013°30'2 3.5
2018-Jul-05 15:00N 43°39' E 013°29'2 4.5
2018-Jul-05 14:30N 43°40' E 013°32'1311.7
2018-Jul-05 13:23N 43°48' E 013°46'  
Track history (hours):
 
Tides and Currents Weather Stations Pressure Air Temp Water Temp Dewpoint Dewpoint Depression Visibility Wind Speed Wind Dir Waves Ship Positions

MSC Elbe

Last reported at 2018-Jul-15 13:06 UTC. Time now 2018-Jul-17 01:48 UTC.
Position N 33°40' E 025°37'.

Length 208 m; draft 9.2 m.

Type: Ship (hazmat cat D). MMSI: 255805922.

Date/timePositionNaut miles runAvg speedWind from/ knotsBaromVisibWave heightAir tempDewpointWater temp
2018-Jul-15 13:06N 33°40' E 025°37'  
2018-Jul-12 13:56N 34°38' E 033°05'3 7.9
2018-Jul-12 13:30N 34°39' E 033°01'0 0.2
2018-Jul-12 13:00N 34°39' E 033°01'0 0.0
2018-Jul-12 12:30N 34°39' E 033°01'0 0.0
2018-Jul-12 12:00N 34°39' E 033°01'0 0.0
2018-Jul-12 11:27N 34°39' E 033°01'0 0.0
2018-Jul-12 10:51N 34°39' E 033°01'0 0.0
2018-Jul-12 10:30N 34°39' E 033°01'0 0.0
2018-Jul-12 10:00N 34°39' E 033°01'0 0.0
2018-Jul-12 09:30N 34°39' E 033°01'0 0.0
2018-Jul-12 09:00N 34°39' E 033°01'0 0.0
2018-Jul-12 08:30N 34°39' E 033°01'0 0.0
2018-Jul-12 08:00N 34°39' E 033°01'0 0.0
2018-Jul-12 07:30N 34°39' E 033°01'0 0.0
2018-Jul-12 07:00N 34°39' E 033°01'0 0.0
2018-Jul-12 06:30N 34°39' E 033°01'0 0.0
2018-Jul-12 06:00N 34°39' E 033°01'0 0.0
2018-Jul-12 05:30N 34°39' E 033°01'0 0.0
2018-Jul-12 05:00N 34°39' E 033°01'0 0.0
2018-Jul-12 04:30N 34°39' E 033°01'0 0.0
2018-Jul-12 04:00N 34°39' E 033°01'0 0.0
2018-Jul-12 03:30N 34°39' E 033°01'0 0.0
2018-Jul-12 03:00N 34°39' E 033°01'0 0.0
2018-Jul-12 02:30N 34°39' E 033°01'0 0.0
2018-Jul-12 02:00N 34°39' E 033°01'0 0.0
2018-Jul-12 01:30N 34°39' E 033°01'0 0.0
2018-Jul-12 00:57N 34°39' E 033°01'0 0.0
2018-Jul-12 00:30N 34°39' E 033°01'0 0.0
2018-Jul-12 00:00N 34°39' E 033°01'0 0.0
2018-Jul-11 23:30N 34°39' E 033°01'0 0.0
2018-Jul-11 23:00N 34°39' E 033°01'0 0.0
2018-Jul-11 22:30N 34°39' E 033°01'0 0.0
2018-Jul-11 22:00N 34°39' E 033°01'0 0.0
2018-Jul-11 21:30N 34°39' E 033°01'0 0.0
2018-Jul-11 21:00N 34°39' E 033°01'0 0.0
2018-Jul-11 20:30N 34°39' E 033°01'0 0.0
2018-Jul-11 20:00N 34°39' E 033°01'0 0.0
2018-Jul-11 19:30N 34°39' E 033°01'0 0.0
2018-Jul-11 19:00N 34°39' E 033°01'0 0.0
2018-Jul-11 18:30N 34°39' E 033°01'0 0.0
2018-Jul-11 18:00N 34°39' E 033°01'0 0.0
2018-Jul-11 17:24N 34°39' E 033°01'0 0.0
2018-Jul-11 17:00N 34°39' E 033°01'0 0.0
2018-Jul-11 16:30N 34°39' E 033°01'0 0.0
2018-Jul-11 16:00N 34°39' E 033°01'0 0.0
2018-Jul-11 15:30N 34°39' E 033°01'0 0.2
2018-Jul-11 15:01N 34°39' E 033°01'2 3.8
2018-Jul-11 14:30N 34°39' E 033°03'9 6.8
2018-Jul-11 13:13N 34°37' E 033°14'910.0
2018-Jul-11 12:17N 34°28' E 033°11'517.2
2018-Jul-11 12:00N 34°26' E 033°05'1417.2
2018-Jul-11 11:12N 34°25' E 032°48'37816.4
2018-Jul-10 12:08N 37°12' E 025°50'216.2
2018-Jul-10 12:00N 37°13' E 025°48'1016.3
2018-Jul-10 11:22N 37°18' E 025°36'615.8
2018-Jul-10 11:00N 37°18' E 025°29'815.6
2018-Jul-10 10:30N 37°18' E 025°19'815.6
2018-Jul-10 10:01N 37°17' E 025°09'815.7
2018-Jul-10 09:30N 37°16' E 024°59'815.7
2018-Jul-10 09:00N 37°16' E 024°50'4614.6
2018-Jul-10 05:51N 37°33' E 023°56'616.3
2018-Jul-10 05:29N 37°36' E 023°49'715.4
2018-Jul-10 05:00N 37°40' E 023°42'816.4
2018-Jul-10 04:30N 37°48' E 023°37'815.8
2018-Jul-10 04:00N 37°56' E 023°37'2 3.6
2018-Jul-10 03:28N 37°57' E 023°36'0 0.0
2018-Jul-10 02:58N 37°57' E 023°36'0 0.0
2018-Jul-10 02:28N 37°57' E 023°36'0 0.0
2018-Jul-10 01:58N 37°57' E 023°36'0 0.0
2018-Jul-10 01:28N 37°57' E 023°36'0 0.0
2018-Jul-10 00:58N 37°57' E 023°36'0 0.0
2018-Jul-10 00:28N 37°57' E 023°36'0 0.0
2018-Jul-09 23:58N 37°57' E 023°36'0 0.0
2018-Jul-09 23:28N 37°57' E 023°36'0 0.0
2018-Jul-09 22:58N 37°57' E 023°36'0 0.0
2018-Jul-09 22:28N 37°57' E 023°36'0 0.0
2018-Jul-09 21:58N 37°57' E 023°36'0 0.0
2018-Jul-09 21:28N 37°57' E 023°36'0 0.0
2018-Jul-09 20:58N 37°57' E 023°36'0 0.0
2018-Jul-09 20:28N 37°57' E 023°36'0 0.0
2018-Jul-09 19:58N 37°57' E 023°36'0 0.0
2018-Jul-09 19:28N 37°57' E 023°36'0 0.0
2018-Jul-09 18:58N 37°57' E 023°36'0 0.0
2018-Jul-09 18:28N 37°57' E 023°36'0 0.0
2018-Jul-09 17:58N 37°57' E 023°36'0 0.0
2018-Jul-09 17:28N 37°57' E 023°36'0 0.0
2018-Jul-09 16:58N 37°57' E 023°36'0 0.0
2018-Jul-09 16:28N 37°57' E 023°36'0 0.0
2018-Jul-09 15:58N 37°57' E 023°36'0 0.0
2018-Jul-09 15:28N 37°57' E 023°36'0 0.0
2018-Jul-09 14:58N 37°57' E 023°36'0 0.0
2018-Jul-09 14:28N 37°57' E 023°36'0 0.0
2018-Jul-09 13:58N 37°57' E 023°36'0 0.0
2018-Jul-09 13:28N 37°57' E 023°36'0 0.0
2018-Jul-09 12:58N 37°57' E 023°36'0 0.0
2018-Jul-09 12:28N 37°57' E 023°36'0 0.0
2018-Jul-09 11:58N 37°57' E 023°36'0 0.0
2018-Jul-09 11:28N 37°57' E 023°36'0 0.0
2018-Jul-09 10:58N 37°57' E 023°36'0 0.0
2018-Jul-09 10:28N 37°57' E 023°36'0 0.0
2018-Jul-09 09:58N 37°57' E 023°36'0 0.0
2018-Jul-09 09:28N 37°57' E 023°36'0 0.0
2018-Jul-09 08:58N 37°57' E 023°36'0 0.0
2018-Jul-09 08:28N 37°57' E 023°36'0 0.0
2018-Jul-09 07:58N 37°57' E 023°36'0 0.0
2018-Jul-09 07:28N 37°57' E 023°36'0 0.0
2018-Jul-09 06:58N 37°57' E 023°36'0 0.0
2018-Jul-09 06:28N 37°57' E 023°36'0 0.0
2018-Jul-09 05:58N 37°57' E 023°36'0 0.0
2018-Jul-09 05:28N 37°57' E 023°36'0 0.0
2018-Jul-09 04:58N 37°57' E 023°36'0 0.0
2018-Jul-09 04:28N 37°57' E 023°36'0 0.0
2018-Jul-09 03:58N 37°57' E 023°36'0 0.0
2018-Jul-09 03:28N 37°57' E 023°36'0 0.0
2018-Jul-09 02:58N 37°57' E 023°36'0 0.0
2018-Jul-09 02:28N 37°57' E 023°36'0 0.0
2018-Jul-09 01:58N 37°57' E 023°36'0 0.0
2018-Jul-09 01:28N 37°57' E 023°36'0 0.0
2018-Jul-09 00:58N 37°57' E 023°36'0 0.0
2018-Jul-09 00:28N 37°57' E 023°36'0 0.0
2018-Jul-08 23:58N 37°57' E 023°36'0 0.0
2018-Jul-08 23:28N 37°57' E 023°36'0 0.0
2018-Jul-08 22:58N 37°57' E 023°36'0 0.0
2018-Jul-08 22:28N 37°57' E 023°36'0 0.0
2018-Jul-08 21:52N 37°57' E 023°36'0 0.0
2018-Jul-08 21:28N 37°57' E 023°36'0 0.0
2018-Jul-08 20:58N 37°57' E 023°36'0 0.0
2018-Jul-08 20:28N 37°57' E 023°36'0 0.0
2018-Jul-08 19:55N 37°57' E 023°36'0 0.0
2018-Jul-08 19:28N 37°57' E 023°36'0 0.0
2018-Jul-08 18:58N 37°57' E 023°36'0 0.0
2018-Jul-08 18:28N 37°57' E 023°36'0 0.0
2018-Jul-08 17:58N 37°57' E 023°36'0 0.0
2018-Jul-08 17:25N 37°57' E 023°36'0 0.0
2018-Jul-08 16:58N 37°57' E 023°36'0 0.0
2018-Jul-08 16:28N 37°57' E 023°36'0 0.0
2018-Jul-08 15:58N 37°57' E 023°36'0 0.0
2018-Jul-08 15:28N 37°57' E 023°36'0 0.0
2018-Jul-08 14:58N 37°57' E 023°36'0 0.0
2018-Jul-08 14:28N 37°57' E 023°36'0 0.0
2018-Jul-08 13:58N 37°57' E 023°36'0 0.0
2018-Jul-08 13:28N 37°57' E 023°36'0 0.0
2018-Jul-08 12:58N 37°57' E 023°36'0 0.0
2018-Jul-08 12:28N 37°57' E 023°36'0 0.0
2018-Jul-08 11:58N 37°57' E 023°36'0 0.2
2018-Jul-08 11:30N 37°57' E 023°36'2 4.5
2018-Jul-08 11:00N 37°55' E 023°36'3 5.8
2018-Jul-08 10:30N 37°53' E 023°38'3 6.4
2018-Jul-08 10:00N 37°50' E 023°40'4 7.1
2018-Jul-08 09:30N 37°47' E 023°42'4 8.5
2018-Jul-08 09:00N 37°43' E 023°44'5 9.6
2018-Jul-08 08:30N 37°38' E 023°47'510.2
2018-Jul-08 08:00N 37°33' E 023°48'2111.4
2018-Jul-08 06:07N 37°12' E 023°46'5112.6
2018-Jul-08 02:07N 36°23' E 023°30'213.5
2018-Jul-08 02:00N 36°22' E 023°29'1013.3
2018-Jul-08 01:17N 36°13' E 023°25'63712.9
2018-Jul-05 23:53N 43°37' E 013°30'0 0.0
2018-Jul-05 23:14N 43°37' E 013°30'0 0.0
2018-Jul-05 22:56N 43°37' E 013°30'0 0.0
2018-Jul-05 22:29N 43°37' E 013°30'0 0.0
2018-Jul-05 21:32N 43°37' E 013°30'0 0.0
2018-Jul-05 21:26N 43°37' E 013°30'0 0.0
2018-Jul-05 19:41N 43°37' E 013°30'0 0.0
2018-Jul-05 19:29N 43°37' E 013°30'0 0.0
2018-Jul-05 17:53N 43°37' E 013°30'0 0.0
2018-Jul-05 17:23N 43°37' E 013°30'0 0.0
2018-Jul-05 16:56N 43°37' E 013°30'0 0.0
2018-Jul-05 16:26N 43°37' E 013°30'0 0.0
2018-Jul-05 15:56N 43°37' E 013°30'0 0.0
2018-Jul-05 15:30N 43°37' E 013°30'2 3.5
2018-Jul-05 15:00N 43°39' E 013°29'2 4.5
2018-Jul-05 14:30N 43°40' E 013°32'1311.7
2018-Jul-05 13:23N 43°48' E 013°46'  

Dump ship's entire track history